createdAt,value
2023-05-02T00:00:04.330Z,7.90
2023-05-02T00:02:34.116Z,7.86
2023-05-02T00:05:01.649Z,7.91
2023-05-02T00:07:30.825Z,7.80
2023-05-02T00:09:58.595Z,7.92
2023-05-02T00:12:26.363Z,7.94
2023-05-02T00:14:54.072Z,7.85
2023-05-02T00:17:22.038Z,7.83
2023-05-02T00:19:49.812Z,7.98
2023-05-02T00:22:17.425Z,7.98
2023-05-02T00:24:45.071Z,7.95
2023-05-02T00:27:12.603Z,7.88
2023-05-02T00:29:41.166Z,7.94
2023-05-02T00:32:08.796Z,7.96
2023-05-02T00:34:36.422Z,7.84
2023-05-02T00:37:03.961Z,7.97
2023-05-02T00:39:31.458Z,7.97
2023-05-02T00:42:00.165Z,7.90
2023-05-02T00:44:28.455Z,7.92
2023-05-02T00:46:57.007Z,7.84
2023-05-02T00:49:25.131Z,7.84
2023-05-02T00:51:54.159Z,7.81
2023-05-02T00:54:22.022Z,8.01
2023-05-02T00:56:49.478Z,8.10
2023-05-02T00:59:18.282Z,8.07
2023-05-02T01:01:48.810Z,8.12
2023-05-02T01:04:29.559Z,8.10
2023-05-02T01:07:23.887Z,8.07
2023-05-02T01:10:30.177Z,8.16
2023-05-02T01:13:04.802Z,8.17
2023-05-02T01:15:35.217Z,8.12
2023-05-02T01:18:04.713Z,8.21
2023-05-02T01:20:37.282Z,8.18
2023-05-02T01:23:14.334Z,8.09
2023-05-02T01:26:03.964Z,8.20
2023-05-02T01:29:00.004Z,8.24
2023-05-02T01:31:32.355Z,8.24
2023-05-02T01:34:01.311Z,8.33
2023-05-02T01:36:31.918Z,8.36
2023-05-02T01:39:02.151Z,8.23
2023-05-02T01:41:32.432Z,8.39
2023-05-02T01:44:02.505Z,8.43
2023-05-02T01:46:37.013Z,8.46
2023-05-02T01:49:07.704Z,8.62
2023-05-02T01:51:41.439Z,8.67
2023-05-02T01:54:10.871Z,8.73
2023-05-02T01:56:40.029Z,8.83
2023-05-02T01:59:17.632Z,8.84
2023-05-02T02:01:46.541Z,8.97
2023-05-02T02:04:16.580Z,8.90
2023-05-02T02:06:48.907Z,8.92
2023-05-02T02:09:16.512Z,9.08
2023-05-02T02:11:52.969Z,9.28
2023-05-02T02:14:28.846Z,9.39
2023-05-02T02:29:47.451Z,9.99
2023-05-02T02:32:15.207Z,10.19
2023-05-02T02:34:42.826Z,10.27
2023-05-02T02:37:26.862Z,10.49
2023-05-02T02:40:03.910Z,11.05
2023-05-02T02:42:48.559Z,12.17
2023-05-02T02:45:28.017Z,12.72
2023-05-02T02:48:22.932Z,13.45
2023-05-02T02:51:15.136Z,13.90
2023-05-02T02:53:50.475Z,14.34
2023-05-02T02:56:27.883Z,14.70
2023-05-02T02:59:01.079Z,15.14
2023-05-02T03:01:32.809Z,15.40
2023-05-02T03:04:04.715Z,15.87
2023-05-02T03:06:32.730Z,16.03
2023-05-02T03:09:01.956Z,16.09
2023-05-02T03:11:30.847Z,16.34
2023-05-02T03:13:59.069Z,16.68
2023-05-02T03:16:40.473Z,17.13
2023-05-02T03:19:12.528Z,17.56
2023-05-02T03:21:40.046Z,17.90
2023-05-02T03:24:13.825Z,17.90
2023-05-02T03:26:42.027Z,18.28
2023-05-02T03:29:12.319Z,18.60
2023-05-02T03:31:43.020Z,19.16
2023-05-02T03:34:10.566Z,19.61
2023-05-02T03:36:39.111Z,19.88
2023-05-02T03:39:07.096Z,20.18
2023-05-02T03:41:36.112Z,20.43
2023-05-02T03:44:08.203Z,20.62
2023-05-02T03:46:36.370Z,20.95
2023-05-02T03:49:07.775Z,21.15
2023-05-02T03:51:36.330Z,21.33
2023-05-02T03:54:04.498Z,21.53
2023-05-02T03:56:33.622Z,21.70
2023-05-02T03:59:15.168Z,22.20
2023-05-02T04:01:43.590Z,22.44
2023-05-02T04:04:14.008Z,22.51
2023-05-02T04:06:47.677Z,22.84
2023-05-02T04:09:16.520Z,23.05
2023-05-02T04:11:52.291Z,23.38
2023-05-02T04:14:19.943Z,23.63
2023-05-02T04:16:52.565Z,23.81
2023-05-02T04:19:35.450Z,24.05
2023-05-02T04:22:04.099Z,24.44
2023-05-02T04:24:35.725Z,24.78
2023-05-02T04:27:03.820Z,25.07
2023-05-02T04:29:32.150Z,25.16
2023-05-02T04:32:00.004Z,25.01
2023-05-02T04:34:29.647Z,25.03
2023-05-02T04:36:57.191Z,25.28
2023-05-02T04:39:26.189Z,25.46
2023-05-02T04:42:00.257Z,25.87
2023-05-02T04:44:29.378Z,26.26
2023-05-02T04:46:57.843Z,26.56
2023-05-02T04:49:25.343Z,26.79
2023-05-02T04:51:53.534Z,27.13
2023-05-02T04:54:22.785Z,27.10
2023-05-02T04:56:50.686Z,27.37
2023-05-02T04:59:19.473Z,27.45
2023-05-02T05:01:47.138Z,27.20
2023-05-02T05:04:14.914Z,27.29
2023-05-02T05:06:42.887Z,27.54
2023-05-02T05:09:11.097Z,27.16
2023-05-02T05:11:39.688Z,27.48
2023-05-02T05:14:07.832Z,27.89
2023-05-02T05:16:38.309Z,28.66
2023-05-02T05:19:05.838Z,28.82
2023-05-02T05:21:33.738Z,29.02
2023-05-02T05:24:03.001Z,29.28
2023-05-02T05:26:30.489Z,29.52
2023-05-02T05:28:59.070Z,30.02
2023-05-02T05:31:30.926Z,29.74
2023-05-02T05:34:01.677Z,29.78
2023-05-02T05:36:31.660Z,29.77
2023-05-02T05:38:59.150Z,30.04
2023-05-02T05:41:27.117Z,30.22
2023-05-02T05:44:01.615Z,30.03
2023-05-02T05:46:30.547Z,29.99
2023-05-02T05:48:58.746Z,30.31
2023-05-02T05:51:28.807Z,30.48
2023-05-02T05:53:59.165Z,30.45
2023-05-02T05:56:27.283Z,30.25
2023-05-02T05:59:01.154Z,30.34
2023-05-02T06:01:28.624Z,30.13
2023-05-02T06:03:56.981Z,30.05
2023-05-02T06:06:24.487Z,30.14
2023-05-02T06:08:52.084Z,30.50
2023-05-02T06:11:21.138Z,30.30
2023-05-02T06:13:48.703Z,30.25
2023-05-02T06:16:16.654Z,30.61
2023-05-02T06:18:50.825Z,30.72
2023-05-02T06:21:18.300Z,29.48
2023-05-02T06:23:46.327Z,28.71
2023-05-02T06:26:13.831Z,28.38
2023-05-02T06:28:41.396Z,27.71
2023-05-02T06:31:09.027Z,27.18
2023-05-02T06:33:37.139Z,26.47
2023-05-02T06:36:04.674Z,26.05
2023-05-02T06:38:32.228Z,25.47
2023-05-02T06:40:59.734Z,25.44
2023-05-02T06:43:27.701Z,24.51
2023-05-02T06:45:56.597Z,24.20
2023-05-02T06:48:24.038Z,24.21
2023-05-02T06:50:54.615Z,24.53
2023-05-02T06:53:22.068Z,23.65
2023-05-02T06:55:50.079Z,23.54
2023-05-02T06:58:17.657Z,24.11
2023-05-02T07:00:45.172Z,24.89
2023-05-02T07:03:12.927Z,25.38
2023-05-02T07:05:40.513Z,25.89
2023-05-02T07:08:08.124Z,26.20
2023-05-02T07:10:35.638Z,26.96
2023-05-02T07:13:03.223Z,27.55
2023-05-02T07:15:30.727Z,27.28
2023-05-02T07:17:58.175Z,27.72
2023-05-02T07:20:25.973Z,27.75
2023-05-02T07:22:53.455Z,27.85
2023-05-02T07:25:20.947Z,27.91
2023-05-02T07:27:48.460Z,27.64
2023-05-02T07:30:16.038Z,27.01
2023-05-02T07:32:43.478Z,26.75
2023-05-02T07:35:10.900Z,26.35
2023-05-02T07:37:38.506Z,25.93
2023-05-02T07:40:07.747Z,25.60
2023-05-02T07:42:36.570Z,25.57
2023-05-02T07:45:04.162Z,25.28
2023-05-02T07:47:32.562Z,25.36
2023-05-02T07:50:00.523Z,25.03
2023-05-02T07:52:28.374Z,25.06
2023-05-02T07:54:55.958Z,25.11
2023-05-02T07:57:24.037Z,25.23
2023-05-02T07:59:51.599Z,25.15
2023-05-02T08:02:21.093Z,25.59
2023-05-02T08:04:49.426Z,25.35
2023-05-02T08:07:17.317Z,25.65
2023-05-02T08:09:44.858Z,25.56
2023-05-02T08:12:12.416Z,25.37
2023-05-02T08:14:39.802Z,24.24
2023-05-02T08:17:07.328Z,23.90
2023-05-02T08:19:34.859Z,23.53
2023-05-02T08:22:02.353Z,23.39
2023-05-02T08:24:31.296Z,23.64
2023-05-02T08:26:58.795Z,23.63
2023-05-02T08:29:26.335Z,23.65
2023-05-02T08:31:53.878Z,23.43
2023-05-02T08:34:21.568Z,23.38
2023-05-02T08:36:49.086Z,23.18
2023-05-02T08:39:17.324Z,23.10
2023-05-02T08:41:45.226Z,22.98
2023-05-02T08:44:12.693Z,22.82
2023-05-02T08:46:42.367Z,22.92
2023-05-02T08:49:16.211Z,22.89
2023-05-02T08:51:45.726Z,22.88
2023-05-02T08:54:17.545Z,22.82
2023-05-02T08:56:46.406Z,22.65
2023-05-02T08:59:13.825Z,22.64
2023-05-02T09:01:46.538Z,22.64
2023-05-02T09:04:15.123Z,22.73
2023-05-02T09:06:42.868Z,23.16
2023-05-02T09:09:10.501Z,22.75
2023-05-02T09:11:38.368Z,22.66
2023-05-02T09:14:15.734Z,22.78
2023-05-02T09:16:43.630Z,22.74
2023-05-02T09:19:11.830Z,22.67
2023-05-02T09:21:41.542Z,22.69
2023-05-02T09:24:35.465Z,22.76
2023-05-02T09:27:04.797Z,22.31
2023-05-02T09:29:38.269Z,22.30
2023-05-02T09:32:07.248Z,22.21
2023-05-02T09:34:35.209Z,22.30
2023-05-02T09:37:05.818Z,22.41
2023-05-02T09:39:33.410Z,22.28
2023-05-02T09:42:01.796Z,22.26
2023-05-02T09:44:37.828Z,22.63
2023-05-02T09:47:07.170Z,22.48
2023-05-02T09:49:47.113Z,22.54
2023-05-02T09:52:17.007Z,22.38
2023-05-02T09:54:47.094Z,22.24
2023-05-02T09:57:14.709Z,22.28
2023-05-02T09:59:53.187Z,22.24
2023-05-02T10:02:22.194Z,22.16
2023-05-02T10:04:51.033Z,22.10
2023-05-02T10:07:18.616Z,21.85
2023-05-02T10:09:47.674Z,21.76
2023-05-02T10:12:17.139Z,21.89
2023-05-02T10:14:57.022Z,22.35
2023-05-02T10:17:42.525Z,22.65
2023-05-02T10:20:11.985Z,22.66
2023-05-02T10:22:40.572Z,22.73
2023-05-02T10:25:08.628Z,22.46
2023-05-02T10:27:38.004Z,22.23
2023-05-02T10:30:06.822Z,22.58
2023-05-02T10:32:35.051Z,22.42
2023-05-02T10:35:07.225Z,22.24
2023-05-02T10:37:37.305Z,22.15
2023-05-02T10:40:06.629Z,22.22
2023-05-02T10:42:40.570Z,22.27
2023-05-02T10:45:37.940Z,21.97
2023-05-02T10:48:23.412Z,21.93
2023-05-02T10:50:59.056Z,22.01
2023-05-02T10:53:30.486Z,21.71
2023-05-02T10:56:23.003Z,21.82
2023-05-02T10:58:52.366Z,21.84
2023-05-02T11:01:29.082Z,21.90
2023-05-02T11:03:59.739Z,21.88
2023-05-02T11:06:29.238Z,21.87
2023-05-02T11:09:21.584Z,21.79
2023-05-02T11:11:52.806Z,22.02
2023-05-02T11:14:26.943Z,22.03
2023-05-02T11:17:06.584Z,22.01
2023-05-02T11:19:46.189Z,22.16
2023-05-02T11:22:19.980Z,22.02
2023-05-02T11:24:48.729Z,22.04
2023-05-02T11:27:38.624Z,22.21
2023-05-02T11:30:07.344Z,22.11
2023-05-02T11:32:47.901Z,22.14
2023-05-02T11:35:23.270Z,22.08
2023-05-02T11:37:58.294Z,22.20
2023-05-02T11:40:27.449Z,22.52
2023-05-02T11:42:55.697Z,22.47
2023-05-02T11:45:32.753Z,22.51
2023-05-02T11:48:00.354Z,22.52
2023-05-02T11:50:30.592Z,22.44
2023-05-02T11:52:58.929Z,22.47
2023-05-02T11:55:27.487Z,22.36
2023-05-02T11:57:55.894Z,22.32
2023-05-02T12:00:28.423Z,22.29
2023-05-02T12:02:56.149Z,22.40
2023-05-02T12:05:30.650Z,22.23
2023-05-02T12:07:58.327Z,22.12
2023-05-02T12:10:36.799Z,22.31
2023-05-02T12:13:06.762Z,22.10
2023-05-02T12:15:34.363Z,22.09
2023-05-02T12:18:02.226Z,21.97
2023-05-02T12:20:29.946Z,21.95
2023-05-02T12:22:57.891Z,21.93
2023-05-02T12:25:25.374Z,22.04
2023-05-02T12:28:03.084Z,21.99
2023-05-02T12:30:32.087Z,22.08
2023-05-02T12:33:02.019Z,22.07
2023-05-02T12:35:31.032Z,22.20
2023-05-02T12:38:17.780Z,22.22
2023-05-02T12:40:50.916Z,22.28
2023-05-02T12:43:19.242Z,22.20
2023-05-02T12:45:48.806Z,22.20
2023-05-02T12:48:24.831Z,22.28
2023-05-02T12:50:53.560Z,22.03
2023-05-02T12:53:44.075Z,22.29
2023-05-02T12:56:13.576Z,22.16
2023-05-02T12:58:48.838Z,22.15
2023-05-02T13:01:16.661Z,22.05
2023-05-02T13:03:44.732Z,21.73
2023-05-02T13:06:12.241Z,21.73
2023-05-02T13:08:39.807Z,21.76
2023-05-02T13:11:07.349Z,21.81
2023-05-02T13:13:35.806Z,21.65
2023-05-02T13:16:03.807Z,21.66
2023-05-02T13:18:31.504Z,21.63
2023-05-02T13:20:58.964Z,21.68
2023-05-02T13:23:26.636Z,21.85
2023-05-02T13:25:54.105Z,21.65
2023-05-02T13:28:21.675Z,21.64
2023-05-02T13:30:49.136Z,21.46
2023-05-02T13:33:16.716Z,21.33
2023-05-02T13:35:44.131Z,21.36
2023-05-02T13:38:11.946Z,21.29
2023-05-02T13:40:39.382Z,21.33
2023-05-02T13:43:08.214Z,21.29
2023-05-02T13:45:36.015Z,21.31
2023-05-02T13:48:03.650Z,21.38
2023-05-02T13:50:31.191Z,21.27
2023-05-02T13:52:58.669Z,21.28
2023-05-02T13:55:26.536Z,21.29
2023-05-02T13:57:54.301Z,21.25
2023-05-02T14:00:21.862Z,21.31
2023-05-02T14:02:49.345Z,21.34
2023-05-02T14:05:16.916Z,21.26
2023-05-02T14:07:44.603Z,21.20
2023-05-02T14:10:12.220Z,21.32
2023-05-02T14:12:39.917Z,21.14
2023-05-02T14:15:08.101Z,21.25
2023-05-02T14:17:35.694Z,21.12
2023-05-02T14:20:03.622Z,20.99
2023-05-02T14:22:31.452Z,20.95
2023-05-02T14:24:58.843Z,20.86
2023-05-02T14:27:26.581Z,20.96
2023-05-02T14:29:54.026Z,20.98
2023-05-02T14:32:22.123Z,20.94
2023-05-02T14:34:49.618Z,20.88
2023-05-02T14:37:17.134Z,20.93
2023-05-02T14:39:47.915Z,20.72
2023-05-02T14:42:16.685Z,20.75
2023-05-02T14:44:44.780Z,20.77
2023-05-02T14:47:12.286Z,20.65
2023-05-02T14:49:39.815Z,20.55
2023-05-02T14:52:07.606Z,20.42
2023-05-02T14:54:35.257Z,20.30
2023-05-02T14:57:03.954Z,20.22
2023-05-02T14:59:31.935Z,20.31
2023-05-02T15:01:59.805Z,20.23
2023-05-02T15:04:28.332Z,20.12
2023-05-02T15:06:57.045Z,20.09
2023-05-02T15:09:26.817Z,19.93
2023-05-02T15:11:54.313Z,20.17
2023-05-02T15:14:22.055Z,20.14
2023-05-02T15:16:49.967Z,19.89
2023-05-02T15:19:17.571Z,20.05
2023-05-02T15:21:45.046Z,20.06
2023-05-02T15:24:13.280Z,20.02
2023-05-02T15:26:41.393Z,19.97
2023-05-02T15:29:08.855Z,19.96
2023-05-02T15:31:36.645Z,19.88
2023-05-02T15:34:04.213Z,19.74
2023-05-02T15:36:32.809Z,19.58
2023-05-02T15:39:00.214Z,19.56
2023-05-02T15:41:28.106Z,19.51
2023-05-02T15:43:55.690Z,19.50
2023-05-02T15:46:23.552Z,19.55
2023-05-02T15:48:51.395Z,19.47
2023-05-02T15:51:19.212Z,19.42
2023-05-02T15:53:50.355Z,19.39
2023-05-02T15:56:18.044Z,19.38
2023-05-02T15:58:46.819Z,19.34
2023-05-02T16:01:14.408Z,19.13
2023-05-02T16:03:42.304Z,19.22
2023-05-02T16:06:14.720Z,19.22
2023-05-02T16:08:44.312Z,19.23
2023-05-02T16:11:11.828Z,19.17
2023-05-02T16:13:39.358Z,19.13
2023-05-02T16:16:08.075Z,19.17
2023-05-02T16:18:35.626Z,19.14
2023-05-02T16:21:05.749Z,19.07
2023-05-02T16:23:33.258Z,18.97
2023-05-02T16:26:01.984Z,18.96
2023-05-02T16:28:30.070Z,19.00
2023-05-02T16:30:57.791Z,19.05
2023-05-02T16:33:30.338Z,18.92
2023-05-02T16:36:02.840Z,19.11
2023-05-02T16:38:30.956Z,18.95
2023-05-02T16:40:58.518Z,18.88
2023-05-02T16:43:26.354Z,18.87
2023-05-02T16:46:07.211Z,19.04
2023-05-02T16:48:35.350Z,18.96
2023-05-02T16:51:04.264Z,18.92
2023-05-02T16:53:32.487Z,18.74
2023-05-02T16:56:00.192Z,18.66
2023-05-02T16:58:30.851Z,18.50
2023-05-02T17:01:00.622Z,18.64
2023-05-02T17:03:29.817Z,18.52
2023-05-02T17:06:02.031Z,18.47
2023-05-02T17:08:29.937Z,18.40
2023-05-02T17:10:57.782Z,18.24
2023-05-02T17:13:25.304Z,18.23
2023-05-02T17:15:54.002Z,18.09
2023-05-02T17:18:22.189Z,18.15
2023-05-02T17:20:50.278Z,18.08
2023-05-02T17:23:18.036Z,18.10
2023-05-02T17:25:45.778Z,18.12
2023-05-02T17:28:13.337Z,18.10
2023-05-02T17:30:41.216Z,18.09
2023-05-02T17:33:08.875Z,18.08
2023-05-02T17:35:36.620Z,18.04
2023-05-02T17:38:04.136Z,17.93
2023-05-02T17:40:31.614Z,17.94
2023-05-02T17:42:59.557Z,17.84
2023-05-02T17:45:29.402Z,17.99
2023-05-02T17:47:57.167Z,17.78
2023-05-02T17:50:24.773Z,17.68
2023-05-02T17:52:52.278Z,17.61
2023-05-02T17:55:20.050Z,17.70
2023-05-02T17:57:47.761Z,17.48
2023-05-02T18:00:15.737Z,17.55
2023-05-02T18:02:44.500Z,17.53
2023-05-02T18:05:13.004Z,17.49
2023-05-02T18:07:40.544Z,17.44
2023-05-02T18:10:08.339Z,17.44
2023-05-02T18:12:36.382Z,17.50
2023-05-02T18:15:05.753Z,17.67
2023-05-02T18:17:33.835Z,17.60
2023-05-02T18:20:04.695Z,17.59
2023-05-02T18:22:35.876Z,17.52
2023-05-02T18:25:03.723Z,17.57
2023-05-02T18:27:31.604Z,17.54
2023-05-02T18:29:59.075Z,17.43
2023-05-02T18:32:26.993Z,17.42
2023-05-02T18:34:54.879Z,17.46
2023-05-02T18:37:27.923Z,17.34
2023-05-02T18:39:55.494Z,17.41
2023-05-02T18:42:23.045Z,17.24
2023-05-02T18:44:50.551Z,17.30
2023-05-02T18:47:18.047Z,17.44
2023-05-02T18:49:46.140Z,17.49
2023-05-02T18:52:13.808Z,17.44
2023-05-02T18:54:41.271Z,17.33
2023-05-02T18:57:08.876Z,17.42
2023-05-02T18:59:36.443Z,17.35
2023-05-02T19:02:04.017Z,17.44
2023-05-02T19:04:32.195Z,17.33
2023-05-02T19:06:59.815Z,17.21
2023-05-02T19:09:27.245Z,17.19
2023-05-02T19:11:55.389Z,17.16
2023-05-02T19:14:22.832Z,17.23
2023-05-02T19:16:51.192Z,17.24
2023-05-02T19:19:18.796Z,17.36
2023-05-02T19:21:48.352Z,17.30
2023-05-02T19:24:15.876Z,17.24
2023-05-02T19:26:43.332Z,17.29
2023-05-02T19:29:11.071Z,17.12
2023-05-02T19:31:39.930Z,17.16
2023-05-02T19:34:07.369Z,17.08
2023-05-02T19:36:34.848Z,17.08
2023-05-02T19:39:02.364Z,17.03
2023-05-02T19:41:29.887Z,16.93
2023-05-02T19:43:59.183Z,17.04
2023-05-02T19:46:27.171Z,17.06
2023-05-02T19:48:54.736Z,17.02
2023-05-02T19:51:25.729Z,16.94
2023-05-02T19:53:54.133Z,16.99
2023-05-02T19:56:21.967Z,16.98
2023-05-02T19:58:49.441Z,17.04
2023-05-02T20:01:16.885Z,16.89
2023-05-02T20:03:44.621Z,16.79
2023-05-02T20:06:12.246Z,16.78
2023-05-02T20:08:40.030Z,16.85
2023-05-02T20:11:07.506Z,16.76
2023-05-02T20:13:34.931Z,16.81
2023-05-02T20:16:02.943Z,16.77
2023-05-02T20:18:30.317Z,16.81
2023-05-02T20:20:58.581Z,16.78
2023-05-02T20:23:26.027Z,16.73
2023-05-02T20:25:53.578Z,16.77
2023-05-02T20:28:21.076Z,16.73
2023-05-02T20:30:48.591Z,16.75
2023-05-02T20:33:17.682Z,16.72
2023-05-02T20:35:45.988Z,16.76
2023-05-02T20:38:13.662Z,16.79
2023-05-02T20:40:42.916Z,16.57
2023-05-02T20:43:10.403Z,16.58
2023-05-02T20:45:39.132Z,16.56
2023-05-02T20:48:06.804Z,16.44
2023-05-02T20:50:34.312Z,16.44
2023-05-02T20:53:01.831Z,16.34
2023-05-02T20:55:29.397Z,16.27
2023-05-02T20:57:57.024Z,16.34
2023-05-02T21:00:24.739Z,16.37
2023-05-02T21:02:52.280Z,16.39
2023-05-02T21:05:19.828Z,16.30
2023-05-02T21:07:47.317Z,16.37
2023-05-02T21:10:15.291Z,16.38
2023-05-02T21:12:42.758Z,16.36
2023-05-02T21:15:10.663Z,16.35
2023-05-02T21:17:39.411Z,16.35
2023-05-02T21:20:07.865Z,16.30
2023-05-02T21:22:35.234Z,16.20
2023-05-02T21:25:02.777Z,16.20
2023-05-02T21:27:30.633Z,16.20
2023-05-02T21:29:58.238Z,16.16
2023-05-02T21:32:26.189Z,16.18
2023-05-02T21:34:53.698Z,16.12
2023-05-02T21:37:21.199Z,16.15
2023-05-02T21:39:48.668Z,16.16
2023-05-02T21:42:16.188Z,16.14
2023-05-02T21:44:43.705Z,16.12
2023-05-02T21:47:11.371Z,16.06
2023-05-02T21:49:38.888Z,16.05
2023-05-02T21:52:06.375Z,16.02
2023-05-02T21:54:34.088Z,15.98
2023-05-02T21:57:03.031Z,15.92
2023-05-02T21:59:30.560Z,15.96
2023-05-02T22:01:57.976Z,15.89
2023-05-02T22:04:25.460Z,15.86
2023-05-02T22:06:53.641Z,15.87
2023-05-02T22:09:21.946Z,15.85
2023-05-02T22:11:49.409Z,15.81
2023-05-02T22:14:16.944Z,15.80
2023-05-02T22:16:44.480Z,15.82
2023-05-02T22:19:14.917Z,15.81
2023-05-02T22:21:42.739Z,15.81
2023-05-02T22:24:10.205Z,15.85
2023-05-02T22:26:37.697Z,15.85
2023-05-02T22:29:05.275Z,15.84
2023-05-02T22:31:32.755Z,15.77
2023-05-02T22:34:00.324Z,15.78
2023-05-02T22:36:28.052Z,15.75
2023-05-02T22:38:55.736Z,15.79
2023-05-02T22:41:23.230Z,15.72
2023-05-02T22:43:50.628Z,15.70
2023-05-02T22:46:18.855Z,15.66
2023-05-02T22:48:46.422Z,15.63
2023-05-02T22:51:14.209Z,15.63
2023-05-02T22:53:42.262Z,15.59
2023-05-02T22:56:09.811Z,15.49
2023-05-02T22:58:37.319Z,15.47
2023-05-02T23:01:04.963Z,15.47
2023-05-02T23:03:32.743Z,15.42
2023-05-02T23:06:00.444Z,15.39
2023-05-02T23:08:27.929Z,15.38
2023-05-02T23:10:56.280Z,15.34
2023-05-02T23:13:24.015Z,15.29
2023-05-02T23:15:55.137Z,15.39
2023-05-02T23:18:23.151Z,15.29
2023-05-02T23:20:50.987Z,15.22
2023-05-02T23:23:18.548Z,15.23
2023-05-02T23:25:46.105Z,15.24
2023-05-02T23:28:13.636Z,15.16
2023-05-02T23:30:41.608Z,15.16
2023-05-02T23:33:09.397Z,15.24
2023-05-02T23:35:36.891Z,15.21
2023-05-02T23:38:08.199Z,15.25
2023-05-02T23:40:35.896Z,15.16
2023-05-02T23:43:05.503Z,15.13
2023-05-02T23:45:33.432Z,15.12
2023-05-02T23:48:00.954Z,15.09
2023-05-02T23:50:28.836Z,15.03
2023-05-02T23:52:56.417Z,15.06
2023-05-02T23:55:23.975Z,15.12
2023-05-02T23:57:51.411Z,15.08
